Houyoshi Park — D5KW8 — position and weather

sailwx.info

Track history (hours):
 
Tides and Currents Weather Stations Pressure Air Temp Water Temp Dewpoint Dewpoint Depression Visibility Wind Speed Wind Dir Waves Ship Positions

Houyoshi Park

Last reported at 2018-Jun-18 11:49 UTC. Time now 2018-Jun-21 14:03 UTC.
Position N 20°45' E 072°33'.

Length 146 m; draft 9.5 m.

Type: Tanker. MMSI: 636017424.

Date/timePositionNaut miles runAvg speedWind from/ knotsBaromVisibWave heightAir tempDewpointWater temp
2018-Jun-18 11:49N 20°45' E 072°33'2 6.9
2018-Jun-18 11:30N 20°47' E 072°33'3 6.8
2018-Jun-18 11:00N 20°51' E 072°33'4 7.0
2018-Jun-18 10:27N 20°54' E 072°33'3 7.6
2018-Jun-18 10:00N 20°58' E 072°34'4 8.1
2018-Jun-18 09:30N 21°02' E 072°35'3 6.5
2018-Jun-18 09:00N 21°05' E 072°36'2 4.1
2018-Jun-18 08:30N 21°05' E 072°38'0 0.0
2018-Jun-18 08:00N 21°05' E 072°38'0 0.0
2018-Jun-18 07:30N 21°05' E 072°38'  
Track history (hours):
 
Tides and Currents Weather Stations Pressure Air Temp Water Temp Dewpoint Dewpoint Depression Visibility Wind Speed Wind Dir Waves Ship Positions

Houyoshi Park

Last reported at 2018-Jun-18 11:49 UTC. Time now 2018-Jun-21 14:03 UTC.
Position N 20°45' E 072°33'.

Length 146 m; draft 9.5 m.

Type: Tanker. MMSI: 636017424.

Date/timePositionNaut miles runAvg speedWind from/ knotsBaromVisibWave heightAir tempDewpointWater temp
2018-Jun-18 11:49N 20°45' E 072°33'2 6.9
2018-Jun-18 11:30N 20°47' E 072°33'3 6.8
2018-Jun-18 11:00N 20°51' E 072°33'4 7.0
2018-Jun-18 10:27N 20°54' E 072°33'3 7.6
2018-Jun-18 10:00N 20°58' E 072°34'4 8.1
2018-Jun-18 09:30N 21°02' E 072°35'3 6.5
2018-Jun-18 09:00N 21°05' E 072°36'2 4.1
2018-Jun-18 08:30N 21°05' E 072°38'0 0.0
2018-Jun-18 08:00N 21°05' E 072°38'0 0.0
2018-Jun-18 07:30N 21°05' E 072°38'  

Dump ship's entire track history